KTPA/TPA METAR and TAF weather

Enter ICAO airport designator
Station Type Date Time Source
KTPA METAR 2019/10/15 20:53 UTC NOAA

KTPA 152053Z 24006KT 10SM FEW040 SCT170 BKN250 29/19 A2995 RMK AO2 SLP141 T02940194 56024


Station Type Date Time Source
KTPA Decoded METAR 2019/10/15 20:53 UTC NOAA

TAMPA INTERNATIONAL AIRPORT , FL, United States (KTPA) 27-58N 082-32W 11M
Oct 15, 2019 - 04:53 PM EDT / 2019.10.15 2053 UTC
Wind: from the WSW (240 degrees) at 7 MPH (6 KT):0
Visibility: 10 mile(s):0
Sky conditions: mostly cloudy
Temperature: 84.9 F (29.4 C)
Dew Point: 66.9 F (19.4 C)
Relative Humidity: 54%
Pressure (altimeter): 29.95 in. Hg (1014 hPa)
Pressure tendency: 0.07 inches (2.4 hPa) lower than three hours ago
ob: KTPA 152053Z 24006KT 10SM FEW040 SCT170 BKN250 29/19 A2995 RMK AO2 SLP141 T02940194 56024
cycle: 21

Station Type Date Time Source
KTPA TAF 2019/10/15 21:57 UTC NOAA

TAF
AMD KTPA 152054Z 1521/1624 22007KT P6SM SCT050 BKN250
FM160100 18005KT P6SM SCT050 BKN250
FM160900 20005KT P6SM SCT020 BKN250
FM161400 22010KT P6SM SCT020 BKN250
FM161700 25012G18KT P6SM SCT030 BKN250

Example: see airport list